sensor_id;sensor_type;location;lat;lon;timestamp;temperature;humidity
67641;SHT31;54434;50.096;20.082;2023-08-06T00:00:12;19.47;87.16
67641;SHT31;54434;50.096;20.082;2023-08-06T00:03:09;19.47;87.22
67641;SHT31;54434;50.096;20.082;2023-08-06T00:05:46;19.47;87.20
67641;SHT31;54434;50.096;20.082;2023-08-06T00:08:22;19.47;87.20
67641;SHT31;54434;50.096;20.082;2023-08-06T00:10:59;19.47;87.16
67641;SHT31;54434;50.096;20.082;2023-08-06T00:13:35;19.45;87.13
67641;SHT31;54434;50.096;20.082;2023-08-06T00:16:12;19.45;87.20
67641;SHT31;54434;50.096;20.082;2023-08-06T00:18:49;19.41;87.20
67641;SHT31;54434;50.096;20.082;2023-08-06T00:21:26;19.40;87.20
67641;SHT31;54434;50.096;20.082;2023-08-06T00:24:03;19.37;87.21
67641;SHT31;54434;50.096;20.082;2023-08-06T00:26:39;19.35;87.29
67641;SHT31;54434;50.096;20.082;2023-08-06T00:29:16;19.33;87.22
67641;SHT31;54434;50.096;20.082;2023-08-06T00:31:53;19.30;87.21
67641;SHT31;54434;50.096;20.082;2023-08-06T00:34:29;19.29;87.23
67641;SHT31;54434;50.096;20.082;2023-08-06T00:37:06;19.28;87.20
67641;SHT31;54434;50.096;20.082;2023-08-06T00:39:43;19.27;87.20
67641;SHT31;54434;50.096;20.082;2023-08-06T00:42:19;19.26;87.20
67641;SHT31;54434;50.096;20.082;2023-08-06T00:44:56;19.25;87.18
67641;SHT31;54434;50.096;20.082;2023-08-06T00:47:32;19.25;87.16
67641;SHT31;54434;50.096;20.082;2023-08-06T00:50:11;19.25;87.16
67641;SHT31;54434;50.096;20.082;2023-08-06T00:52:49;19.23;87.25
67641;SHT31;54434;50.096;20.082;2023-08-06T00:55:26;19.19;87.39
67641;SHT31;54434;50.096;20.082;2023-08-06T00:58:03;19.17;87.48
67641;SHT31;54434;50.096;20.082;2023-08-06T01:00:40;19.15;87.55
67641;SHT31;54434;50.096;20.082;2023-08-06T01:03:19;19.14;87.61
67641;SHT31;54434;50.096;20.082;2023-08-06T01:05:55;19.15;87.66
67641;SHT31;54434;50.096;20.082;2023-08-06T01:08:36;19.17;87.62
67641;SHT31;54434;50.096;20.082;2023-08-06T01:11:30;19.18;87.64
67641;SHT31;54434;50.096;20.082;2023-08-06T01:14:23;19.19;87.66
67641;SHT31;54434;50.096;20.082;2023-08-06T01:17:09;19.19;87.67
67641;SHT31;54434;50.096;20.082;2023-08-06T01:19:47;19.20;87.70
67641;SHT31;54434;50.096;20.082;2023-08-06T01:22:23;19.22;87.71
67641;SHT31;54434;50.096;20.082;2023-08-06T01:25:00;19.24;87.71
67641;SHT31;54434;50.096;20.082;2023-08-06T01:27:43;19.25;87.69
67641;SHT31;54434;50.096;20.082;2023-08-06T01:30:25;19.27;87.68
67641;SHT31;54434;50.096;20.082;2023-08-06T01:33:10;19.27;87.64
67641;SHT31;54434;50.096;20.082;2023-08-06T01:35:53;19.28;87.69
67641;SHT31;54434;50.096;20.082;2023-08-06T01:38:30;19.31;87.70
67641;SHT31;54434;50.096;20.082;2023-08-06T01:41:07;19.32;87.71
67641;SHT31;54434;50.096;20.082;2023-08-06T01:43:43;19.34;87.71
67641;SHT31;54434;50.096;20.082;2023-08-06T01:46:20;19.36;87.76
67641;SHT31;54434;50.096;20.082;2023-08-06T01:48:56;19.39;87.75
67641;SHT31;54434;50.096;20.082;2023-08-06T01:51:33;19.39;87.74
67641;SHT31;54434;50.096;20.082;2023-08-06T01:54:09;19.42;87.74
67641;SHT31;54434;50.096;20.082;2023-08-06T01:56:57;19.43;87.71
67641;SHT31;54434;50.096;20.082;2023-08-06T01:59:34;19.45;87.70
67641;SHT31;54434;50.096;20.082;2023-08-06T02:02:10;19.47;87.71
67641;SHT31;54434;50.096;20.082;2023-08-06T02:04:46;19.48;87.70
67641;SHT31;54434;50.096;20.082;2023-08-06T02:07:23;19.50;87.70
67641;SHT31;54434;50.096;20.082;2023-08-06T02:10:00;19.52;87.68
67641;SHT31;54434;50.096;20.082;2023-08-06T02:12:38;19.53;87.61
67641;SHT31;54434;50.096;20.082;2023-08-06T02:15:15;19.54;87.60
67641;SHT31;54434;50.096;20.082;2023-08-06T02:17:51;19.55;87.60
67641;SHT31;54434;50.096;20.082;2023-08-06T02:20:28;19.57;87.57
67641;SHT31;54434;50.096;20.082;2023-08-06T02:23:05;19.58;87.50
67641;SHT31;54434;50.096;20.082;2023-08-06T02:25:41;19.60;87.50
67641;SHT31;54434;50.096;20.082;2023-08-06T02:28:18;19.58;87.54
67641;SHT31;54434;50.096;20.082;2023-08-06T02:30:54;19.59;87.52
67641;SHT31;54434;50.096;20.082;2023-08-06T02:33:32;19.61;87.50
67641;SHT31;54434;50.096;20.082;2023-08-06T02:36:09;19.62;87.50
67641;SHT31;54434;50.096;20.082;2023-08-06T02:38:45;19.63;87.48
67641;SHT31;54434;50.096;20.082;2023-08-06T02:41:22;19.61;87.50
67641;SHT31;54434;50.096;20.082;2023-08-06T02:44:01;19.63;87.50
67641;SHT31;54434;50.096;20.082;2023-08-06T02:46:38;19.63;87.50
67641;SHT31;54434;50.096;20.082;2023-08-06T02:49:15;19.63;87.52
67641;SHT31;54434;50.096;20.082;2023-08-06T02:51:51;19.63;87.49
67641;SHT31;54434;50.096;20.082;2023-08-06T02:54:28;19.63;87.46
67641;SHT31;54434;50.096;20.082;2023-08-06T02:57:07;19.63;87.42
67641;SHT31;54434;50.096;20.082;2023-08-06T02:59:43;19.64;87.41
67641;SHT31;54434;50.096;20.082;2023-08-06T03:02:23;19.62;87.40
67641;SHT31;54434;50.096;20.082;2023-08-06T03:05:08;19.62;87.40
67641;SHT31;54434;50.096;20.082;2023-08-06T03:07:47;19.64;87.40
67641;SHT31;54434;50.096;20.082;2023-08-06T03:10:27;19.64;87.40
67641;SHT31;54434;50.096;20.082;2023-08-06T03:13:04;19.63;87.40
67641;SHT31;54434;50.096;20.082;2023-08-06T03:15:41;19.63;87.43
67641;SHT31;54434;50.096;20.082;2023-08-06T03:18:24;19.62;87.41
67641;SHT31;54434;50.096;20.082;2023-08-06T03:21:02;19.63;87.43
67641;SHT31;54434;50.096;20.082;2023-08-06T03:23:39;19.64;87.44
67641;SHT31;54434;50.096;20.082;2023-08-06T03:26:16;19.63;87.49
67641;SHT31;54434;50.096;20.082;2023-08-06T03:28:53;19.63;87.50
67641;SHT31;54434;50.096;20.082;2023-08-06T03:31:29;19.63;87.51
67641;SHT31;54434;50.096;20.082;2023-08-06T03:34:07;19.62;87.55
67641;SHT31;54434;50.096;20.082;2023-08-06T03:36:45;19.62;87.60
67641;SHT31;54434;50.096;20.082;2023-08-06T03:39:21;19.62;87.59
67641;SHT31;54434;50.096;20.082;2023-08-06T03:41:57;19.63;87.59
67641;SHT31;54434;50.096;20.082;2023-08-06T03:44:34;19.63;87.60
67641;SHT31;54434;50.096;20.082;2023-08-06T03:47:12;19.65;87.53
67641;SHT31;54434;50.096;20.082;2023-08-06T03:49:50;19.67;87.50
67641;SHT31;54434;50.096;20.082;2023-08-06T03:52:27;19.68;87.44
67641;SHT31;54434;50.096;20.082;2023-08-06T03:55:04;19.68;87.45
67641;SHT31;54434;50.096;20.082;2023-08-06T03:57:41;19.68;87.50
67641;SHT31;54434;50.096;20.082;2023-08-06T04:00:17;19.69;87.50
67641;SHT31;54434;50.096;20.082;2023-08-06T04:02:55;19.71;87.49
67641;SHT31;54434;50.096;20.082;2023-08-06T04:05:33;19.72;87.44
67641;SHT31;54434;50.096;20.082;2023-08-06T04:08:10;19.74;87.40
67641;SHT31;54434;50.096;20.082;2023-08-06T04:10:48;19.71;87.39
67641;SHT31;54434;50.096;20.082;2023-08-06T04:13:25;19.71;87.41
67641;SHT31;54434;50.096;20.082;2023-08-06T04:16:04;19.70;87.39
67641;SHT31;54434;50.096;20.082;2023-08-06T04:18:40;19.70;87.35
67641;SHT31;54434;50.096;20.082;2023-08-06T04:21:17;19.71;87.30
67641;SHT31;54434;50.096;20.082;2023-08-06T04:23:54;19.72;87.30
67641;SHT31;54434;50.096;20.082;2023-08-06T04:26:31;19.71;87.28
67641;SHT31;54434;50.096;20.082;2023-08-06T04:29:07;19.72;87.22
67641;SHT31;54434;50.096;20.082;2023-08-06T04:31:43;19.72;87.17
67641;SHT31;54434;50.096;20.082;2023-08-06T04:34:20;19.73;87.10
67641;SHT31;54434;50.096;20.082;2023-08-06T04:36:57;19.73;87.10
67641;SHT31;54434;50.096;20.082;2023-08-06T04:39:34;19.74;87.06
67641;SHT31;54434;50.096;20.082;2023-08-06T04:42:11;19.74;86.98
67641;SHT31;54434;50.096;20.082;2023-08-06T04:44:47;19.75;86.94
67641;SHT31;54434;50.096;20.082;2023-08-06T04:47:24;19.76;86.90
67641;SHT31;54434;50.096;20.082;2023-08-06T04:50:00;19.77;86.82
67641;SHT31;54434;50.096;20.082;2023-08-06T04:52:38;19.78;86.73
67641;SHT31;54434;50.096;20.082;2023-08-06T04:55:15;19.79;86.71
67641;SHT31;54434;50.096;20.082;2023-08-06T04:57:52;19.82;86.65
67641;SHT31;54434;50.096;20.082;2023-08-06T05:00:28;19.82;86.54
67641;SHT31;54434;50.096;20.082;2023-08-06T05:03:05;19.83;86.53
67641;SHT31;54434;50.096;20.082;2023-08-06T05:05:43;19.85;86.60
67641;SHT31;54434;50.096;20.082;2023-08-06T05:08:20;19.86;86.61
67641;SHT31;54434;50.096;20.082;2023-08-06T05:10:56;19.86;86.68
67641;SHT31;54434;50.096;20.082;2023-08-06T05:13:33;19.86;86.78
67641;SHT31;54434;50.096;20.082;2023-08-06T05:16:09;19.88;86.80
67641;SHT31;54434;50.096;20.082;2023-08-06T05:18:46;19.88;86.79
67641;SHT31;54434;50.096;20.082;2023-08-06T05:21:22;19.87;86.72
67641;SHT31;54434;50.096;20.082;2023-08-06T05:23:59;19.86;86.74
67641;SHT31;54434;50.096;20.082;2023-08-06T05:26:35;19.85;86.73
67641;SHT31;54434;50.096;20.082;2023-08-06T05:29:11;19.82;86.53
67641;SHT31;54434;50.096;20.082;2023-08-06T05:31:49;19.81;86.44
67641;SHT31;54434;50.096;20.082;2023-08-06T05:34:26;19.80;86.39
67641;SHT31;54434;50.096;20.082;2023-08-06T05:37:03;19.80;86.42
67641;SHT31;54434;50.096;20.082;2023-08-06T05:39:41;19.78;86.51
67641;SHT31;54434;50.096;20.082;2023-08-06T05:42:17;19.80;86.60
67641;SHT31;54434;50.096;20.082;2023-08-06T05:44:53;19.81;86.57
67641;SHT31;54434;50.096;20.082;2023-08-06T05:47:30;19.81;86.53
67641;SHT31;54434;50.096;20.082;2023-08-06T05:50:08;19.80;86.57
67641;SHT31;54434;50.096;20.082;2023-08-06T05:52:44;19.78;86.55
67641;SHT31;54434;50.096;20.082;2023-08-06T05:55:21;19.78;86.54
67641;SHT31;54434;50.096;20.082;2023-08-06T05:57:58;19.79;86.59
67641;SHT31;54434;50.096;20.082;2023-08-06T06:00:34;19.79;86.55
67641;SHT31;54434;50.096;20.082;2023-08-06T06:03:11;19.80;86.49
67641;SHT31;54434;50.096;20.082;2023-08-06T06:05:47;19.80;86.53
67641;SHT31;54434;50.096;20.082;2023-08-06T06:08:24;19.80;86.62
67641;SHT31;54434;50.096;20.082;2023-08-06T06:11:00;19.80;86.64
67641;SHT31;54434;50.096;20.082;2023-08-06T06:13:37;19.83;86.60
67641;SHT31;54434;50.096;20.082;2023-08-06T06:16:13;19.86;86.60
67641;SHT31;54434;50.096;20.082;2023-08-06T06:18:50;19.89;86.56
67641;SHT31;54434;50.096;20.082;2023-08-06T06:21:29;19.92;86.59
67641;SHT31;54434;50.096;20.082;2023-08-06T06:24:06;19.98;86.60
67641;SHT31;54434;50.096;20.082;2023-08-06T06:26:42;19.98;86.54
67641;SHT31;54434;50.096;20.082;2023-08-06T06:29:18;19.99;86.50
67641;SHT31;54434;50.096;20.082;2023-08-06T06:31:55;19.97;86.56
67641;SHT31;54434;50.096;20.082;2023-08-06T06:34:31;19.95;86.59
67641;SHT31;54434;50.096;20.082;2023-08-06T06:37:08;19.94;86.63
67641;SHT31;54434;50.096;20.082;2023-08-06T06:39:44;19.94;86.71
67641;SHT31;54434;50.096;20.082;2023-08-06T06:42:20;19.91;86.75
67641;SHT31;54434;50.096;20.082;2023-08-06T06:45:02;19.90;86.79
67641;SHT31;54434;50.096;20.082;2023-08-06T06:47:40;19.91;86.88
67641;SHT31;54434;50.096;20.082;2023-08-06T06:50:17;19.95;86.89
67641;SHT31;54434;50.096;20.082;2023-08-06T06:52:53;19.95;86.89
67641;SHT31;54434;50.096;20.082;2023-08-06T06:55:29;19.97;86.96
67641;SHT31;54434;50.096;20.082;2023-08-06T06:58:07;19.99;87.01
67641;SHT31;54434;50.096;20.082;2023-08-06T07:00:43;19.99;86.95
67641;SHT31;54434;50.096;20.082;2023-08-06T07:03:21;20.01;86.94
67641;SHT31;54434;50.096;20.082;2023-08-06T07:05:59;20.04;86.94
67641;SHT31;54434;50.096;20.082;2023-08-06T07:08:37;20.07;86.93
67641;SHT31;54434;50.096;20.082;2023-08-06T07:11:13;20.12;86.93
67641;SHT31;54434;50.096;20.082;2023-08-06T07:13:55;20.18;86.94
67641;SHT31;54434;50.096;20.082;2023-08-06T07:16:32;20.19;86.80
67641;SHT31;54434;50.096;20.082;2023-08-06T07:19:08;20.20;86.75
67641;SHT31;54434;50.096;20.082;2023-08-06T07:21:45;20.20;86.78
67641;SHT31;54434;50.096;20.082;2023-08-06T07:24:23;20.20;86.78
67641;SHT31;54434;50.096;20.082;2023-08-06T07:26:59;20.23;86.83
67641;SHT31;54434;50.096;20.082;2023-08-06T07:29:35;20.28;86.80
67641;SHT31;54434;50.096;20.082;2023-08-06T07:32:12;20.33;86.72
67641;SHT31;54434;50.096;20.082;2023-08-06T07:34:48;20.33;86.69
67641;SHT31;54434;50.096;20.082;2023-08-06T07:37:28;20.34;86.74
67641;SHT31;54434;50.096;20.082;2023-08-06T07:40:07;20.34;86.75
67641;SHT31;54434;50.096;20.082;2023-08-06T07:42:45;20.33;86.75
67641;SHT31;54434;50.096;20.082;2023-08-06T07:45:21;20.33;86.72
67641;SHT31;54434;50.096;20.082;2023-08-06T07:47:59;20.34;86.80
67641;SHT31;54434;50.096;20.082;2023-08-06T07:50:37;20.41;86.91
67641;SHT31;54434;50.096;20.082;2023-08-06T07:53:13;20.50;86.81
67641;SHT31;54434;50.096;20.082;2023-08-06T07:55:51;20.58;86.73
67641;SHT31;54434;50.096;20.082;2023-08-06T07:58:28;20.60;86.57
67641;SHT31;54434;50.096;20.082;2023-08-06T08:01:05;20.62;86.48
67641;SHT31;54434;50.096;20.082;2023-08-06T08:03:42;20.59;86.33
67641;SHT31;54434;50.096;20.082;2023-08-06T08:06:18;20.61;86.37
67641;SHT31;54434;50.096;20.082;2023-08-06T08:08:55;20.70;85.99
67641;SHT31;54434;50.096;20.082;2023-08-06T08:11:31;20.64;84.68
67641;SHT31;54434;50.096;20.082;2023-08-06T08:14:08;20.54;83.84
67641;SHT31;54434;50.096;20.082;2023-08-06T08:16:44;20.46;83.41
67641;SHT31;54434;50.096;20.082;2023-08-06T08:19:21;20.38;83.19
67641;SHT31;54434;50.096;20.082;2023-08-06T08:21:57;20.34;83.21
67641;SHT31;54434;50.096;20.082;2023-08-06T08:24:33;20.33;82.69
67641;SHT31;54434;50.096;20.082;2023-08-06T08:27:10;20.30;82.70
67641;SHT31;54434;50.096;20.082;2023-08-06T08:29:47;20.26;82.64
67641;SHT31;54434;50.096;20.082;2023-08-06T08:32:23;20.24;82.58
67641;SHT31;54434;50.096;20.082;2023-08-06T08:35:00;20.20;82.55
67641;SHT31;54434;50.096;20.082;2023-08-06T08:37:37;20.20;82.64
67641;SHT31;54434;50.096;20.082;2023-08-06T08:40:15;20.13;82.52
67641;SHT31;54434;50.096;20.082;2023-08-06T08:42:52;20.03;82.96
67641;SHT31;54434;50.096;20.082;2023-08-06T08:45:30;19.99;83.18
67641;SHT31;54434;50.096;20.082;2023-08-06T08:48:15;20.03;83.00
67641;SHT31;54434;50.096;20.082;2023-08-06T08:50:52;19.98;82.76
67641;SHT31;54434;50.096;20.082;2023-08-06T08:53:30;19.89;82.69
67641;SHT31;54434;50.096;20.082;2023-08-06T08:56:10;19.82;82.79
67641;SHT31;54434;50.096;20.082;2023-08-06T08:58:47;19.76;82.71
67641;SHT31;54434;50.096;20.082;2023-08-06T09:01:24;19.77;82.87
67641;SHT31;54434;50.096;20.082;2023-08-06T09:04:02;19.85;82.91
67641;SHT31;54434;50.096;20.082;2023-08-06T09:06:39;20.03;82.62
67641;SHT31;54434;50.096;20.082;2023-08-06T09:09:22;20.15;82.15
67641;SHT31;54434;50.096;20.082;2023-08-06T09:12:12;20.26;82.12
67641;SHT31;54434;50.096;20.082;2023-08-06T09:14:49;20.32;82.18
67641;SHT31;54434;50.096;20.082;2023-08-06T09:17:27;20.38;81.89
67641;SHT31;54434;50.096;20.082;2023-08-06T09:20:12;20.35;81.57
67641;SHT31;54434;50.096;20.082;2023-08-06T09:22:50;20.34;81.54
67641;SHT31;54434;50.096;20.082;2023-08-06T09:25:28;20.33;81.51
67641;SHT31;54434;50.096;20.082;2023-08-06T09:28:05;20.33;81.57
67641;SHT31;54434;50.096;20.082;2023-08-06T09:30:42;20.37;81.42
67641;SHT31;54434;50.096;20.082;2023-08-06T09:33:21;20.38;81.38
67641;SHT31;54434;50.096;20.082;2023-08-06T09:36:11;20.45;81.18
67641;SHT31;54434;50.096;20.082;2023-08-06T09:38:47;20.47;81.11
67641;SHT31;54434;50.096;20.082;2023-08-06T09:41:28;20.48;80.92
67641;SHT31;54434;50.096;20.082;2023-08-06T09:44:05;20.46;80.42
67641;SHT31;54434;50.096;20.082;2023-08-06T09:46:52;20.34;80.34
67641;SHT31;54434;50.096;20.082;2023-08-06T09:49:39;20.26;80.81
67641;SHT31;54434;50.096;20.082;2023-08-06T09:52:17;20.26;80.82
67641;SHT31;54434;50.096;20.082;2023-08-06T09:54:54;20.23;80.56
67641;SHT31;54434;50.096;20.082;2023-08-06T09:57:32;20.28;80.78
67641;SHT31;54434;50.096;20.082;2023-08-06T10:00:10;20.41;80.34
67641;SHT31;54434;50.096;20.082;2023-08-06T10:02:50;20.41;80.23
67641;SHT31;54434;50.096;20.082;2023-08-06T10:05:28;20.35;79.82
67641;SHT31;54434;50.096;20.082;2023-08-06T10:08:06;20.23;79.92
67641;SHT31;54434;50.096;20.082;2023-08-06T10:10:43;20.17;80.08
67641;SHT31;54434;50.096;20.082;2023-08-06T10:13:20;20.13;80.29
67641;SHT31;54434;50.096;20.082;2023-08-06T10:15:58;20.06;80.16
67641;SHT31;54434;50.096;20.082;2023-08-06T10:18:38;19.99;80.09
67641;SHT31;54434;50.096;20.082;2023-08-06T10:21:15;19.95;80.03
67641;SHT31;54434;50.096;20.082;2023-08-06T10:23:56;19.92;79.91
67641;SHT31;54434;50.096;20.082;2023-08-06T10:26:33;19.79;79.94
67641;SHT31;54434;50.096;20.082;2023-08-06T10:29:36;19.69;80.11
67641;SHT31;54434;50.096;20.082;2023-08-06T10:32:12;19.52;80.12
67641;SHT31;54434;50.096;20.082;2023-08-06T10:34:58;19.48;80.33
67641;SHT31;54434;50.096;20.082;2023-08-06T10:37:37;19.37;80.16
67641;SHT31;54434;50.096;20.082;2023-08-06T10:40:19;19.19;80.38
67641;SHT31;54434;50.096;20.082;2023-08-06T10:42:59;19.04;80.68
67641;SHT31;54434;50.096;20.082;2023-08-06T10:45:38;18.87;80.90
67641;SHT31;54434;50.096;20.082;2023-08-06T10:48:33;18.76;81.48
67641;SHT31;54434;50.096;20.082;2023-08-06T10:51:12;18.79;81.78
67641;SHT31;54434;50.096;20.082;2023-08-06T10:53:50;18.84;81.79
67641;SHT31;54434;50.096;20.082;2023-08-06T10:56:27;18.97;81.95
67641;SHT31;54434;50.096;20.082;2023-08-06T10:59:03;19.02;81.76
67641;SHT31;54434;50.096;20.082;2023-08-06T11:01:42;19.11;81.67
67641;SHT31;54434;50.096;20.082;2023-08-06T11:04:19;19.17;81.24
67641;SHT31;54434;50.096;20.082;2023-08-06T11:06:56;19.24;81.14
67641;SHT31;54434;50.096;20.082;2023-08-06T11:09:33;19.34;80.89
67641;SHT31;54434;50.096;20.082;2023-08-06T11:12:11;19.43;80.52
67641;SHT31;54434;50.096;20.082;2023-08-06T11:14:53;19.53;80.58
67641;SHT31;54434;50.096;20.082;2023-08-06T11:17:31;19.62;80.41
67641;SHT31;54434;50.096;20.082;2023-08-06T11:20:10;19.63;79.99
67641;SHT31;54434;50.096;20.082;2023-08-06T11:22:48;19.63;79.77
67641;SHT31;54434;50.096;20.082;2023-08-06T11:25:25;19.65;79.86
67641;SHT31;54434;50.096;20.082;2023-08-06T11:28:02;19.68;79.55
67641;SHT31;54434;50.096;20.082;2023-08-06T11:30:40;19.67;79.22
67641;SHT31;54434;50.096;20.082;2023-08-06T11:33:21;19.59;78.71
67641;SHT31;54434;50.096;20.082;2023-08-06T11:35:59;19.48;79.42
67641;SHT31;54434;50.096;20.082;2023-08-06T11:38:36;19.40;79.42
67641;SHT31;54434;50.096;20.082;2023-08-06T11:41:13;19.23;79.63
67641;SHT31;54434;50.096;20.082;2023-08-06T11:43:50;19.08;79.76
67641;SHT31;54434;50.096;20.082;2023-08-06T11:46:27;18.90;79.75
67641;SHT31;54434;50.096;20.082;2023-08-06T11:49:36;18.61;79.80
67641;SHT31;54434;50.096;20.082;2023-08-06T11:52:20;18.33;80.23
67641;SHT31;54434;50.096;20.082;2023-08-06T11:55:05;18.21;80.50
67641;SHT31;54434;50.096;20.082;2023-08-06T11:57:45;18.05;80.72
67641;SHT31;54434;50.096;20.082;2023-08-06T12:00:22;17.91;81.06
67641;SHT31;54434;50.096;20.082;2023-08-06T12:03:00;17.81;81.30
67641;SHT31;54434;50.096;20.082;2023-08-06T12:05:37;17.71;81.63
67641;SHT31;54434;50.096;20.082;2023-08-06T12:08:14;17.60;81.78
67641;SHT31;54434;50.096;20.082;2023-08-06T12:10:51;17.49;82.05
67641;SHT31;54434;50.096;20.082;2023-08-06T12:13:27;17.36;82.36
67641;SHT31;54434;50.096;20.082;2023-08-06T12:16:04;17.27;82.68
67641;SHT31;54434;50.096;20.082;2023-08-06T12:18:40;17.23;82.70
67641;SHT31;54434;50.096;20.082;2023-08-06T12:21:17;17.20;82.69
67641;SHT31;54434;50.096;20.082;2023-08-06T12:23:54;17.16;82.87
67641;SHT31;54434;50.096;20.082;2023-08-06T12:26:31;17.08;82.70
67641;SHT31;54434;50.096;20.082;2023-08-06T12:29:10;17.02;82.87
67641;SHT31;54434;50.096;20.082;2023-08-06T12:31:46;17.01;83.15
67641;SHT31;54434;50.096;20.082;2023-08-06T12:34:23;16.94;83.12
67641;SHT31;54434;50.096;20.082;2023-08-06T12:37:18;16.89;83.25
67641;SHT31;54434;50.096;20.082;2023-08-06T12:39:55;16.80;83.16
67641;SHT31;54434;50.096;20.082;2023-08-06T12:42:51;16.75;83.14
67641;SHT31;54434;50.096;20.082;2023-08-06T12:45:28;16.71;82.95
67641;SHT31;54434;50.096;20.082;2023-08-06T12:48:05;16.66;83.00
67641;SHT31;54434;50.096;20.082;2023-08-06T12:50:42;16.62;83.09
67641;SHT31;54434;50.096;20.082;2023-08-06T12:53:22;16.59;83.20
67641;SHT31;54434;50.096;20.082;2023-08-06T12:55:58;16.59;83.34
67641;SHT31;54434;50.096;20.082;2023-08-06T12:58:37;16.60;83.40
67641;SHT31;54434;50.096;20.082;2023-08-06T13:01:14;16.60;83.42
67641;SHT31;54434;50.096;20.082;2023-08-06T13:03:51;16.59;83.77
67641;SHT31;54434;50.096;20.082;2023-08-06T13:06:46;16.58;83.71
67641;SHT31;54434;50.096;20.082;2023-08-06T13:09:23;16.59;83.76
67641;SHT31;54434;50.096;20.082;2023-08-06T13:12:04;16.60;83.96
67641;SHT31;54434;50.096;20.082;2023-08-06T13:14:41;16.63;84.13
67641;SHT31;54434;50.096;20.082;2023-08-06T13:17:18;16.65;83.96
67641;SHT31;54434;50.096;20.082;2023-08-06T13:19:55;16.64;83.93
67641;SHT31;54434;50.096;20.082;2023-08-06T13:22:31;16.62;83.99
67641;SHT31;54434;50.096;20.082;2023-08-06T13:25:08;16.62;84.17
67641;SHT31;54434;50.096;20.082;2023-08-06T13:27:46;16.63;84.11
67641;SHT31;54434;50.096;20.082;2023-08-06T13:30:23;16.63;84.00
67641;SHT31;54434;50.096;20.082;2023-08-06T13:33:00;16.62;84.08
67641;SHT31;54434;50.096;20.082;2023-08-06T13:35:38;16.63;84.16
67641;SHT31;54434;50.096;20.082;2023-08-06T13:38:14;16.61;84.15
67641;SHT31;54434;50.096;20.082;2023-08-06T13:40:53;16.61;84.21
67641;SHT31;54434;50.096;20.082;2023-08-06T13:43:29;16.58;84.13
67641;SHT31;54434;50.096;20.082;2023-08-06T13:46:06;16.52;84.14
67641;SHT31;54434;50.096;20.082;2023-08-06T13:48:49;16.51;84.20
67641;SHT31;54434;50.096;20.082;2023-08-06T13:51:27;16.50;84.35
67641;SHT31;54434;50.096;20.082;2023-08-06T13:54:05;16.51;84.36
67641;SHT31;54434;50.096;20.082;2023-08-06T13:56:42;16.57;84.35
67641;SHT31;54434;50.096;20.082;2023-08-06T13:59:18;16.63;84.21
67641;SHT31;54434;50.096;20.082;2023-08-06T14:01:56;16.71;84.15
67641;SHT31;54434;50.096;20.082;2023-08-06T14:04:34;16.75;84.00
67641;SHT31;54434;50.096;20.082;2023-08-06T14:07:12;16.78;83.79
67641;SHT31;54434;50.096;20.082;2023-08-06T14:09:49;16.79;83.78
67641;SHT31;54434;50.096;20.082;2023-08-06T14:12:26;16.80;83.79
67641;SHT31;54434;50.096;20.082;2023-08-06T14:15:03;16.85;83.86
67641;SHT31;54434;50.096;20.082;2023-08-06T14:17:41;16.88;83.75
67641;SHT31;54434;50.096;20.082;2023-08-06T14:20:18;16.90;83.79
67641;SHT31;54434;50.096;20.082;2023-08-06T14:22:55;16.92;83.84
67641;SHT31;54434;50.096;20.082;2023-08-06T14:25:32;16.94;83.89
67641;SHT31;54434;50.096;20.082;2023-08-06T14:28:09;16.97;83.82
67641;SHT31;54434;50.096;20.082;2023-08-06T14:30:46;17.02;83.60
67641;SHT31;54434;50.096;20.082;2023-08-06T14:33:22;17.03;83.46
67641;SHT31;54434;50.096;20.082;2023-08-06T14:35:59;17.01;83.54
67641;SHT31;54434;50.096;20.082;2023-08-06T14:38:36;17.04;83.57
67641;SHT31;54434;50.096;20.082;2023-08-06T14:41:28;17.09;83.59
67641;SHT31;54434;50.096;20.082;2023-08-06T14:44:05;17.10;83.52
67641;SHT31;54434;50.096;20.082;2023-08-06T14:46:42;17.07;83.29
67641;SHT31;54434;50.096;20.082;2023-08-06T14:49:19;17.07;83.47
67641;SHT31;54434;50.096;20.082;2023-08-06T14:51:56;17.07;83.38
67641;SHT31;54434;50.096;20.082;2023-08-06T14:54:33;17.06;83.22
67641;SHT31;54434;50.096;20.082;2023-08-06T14:57:10;17.04;83.15
67641;SHT31;54434;50.096;20.082;2023-08-06T14:59:46;17.05;83.40
67641;SHT31;54434;50.096;20.082;2023-08-06T15:02:23;17.07;83.54
67641;SHT31;54434;50.096;20.082;2023-08-06T15:05:06;17.13;83.70
67641;SHT31;54434;50.096;20.082;2023-08-06T15:07:43;17.21;83.69
67641;SHT31;54434;50.096;20.082;2023-08-06T15:10:20;17.27;83.70
67641;SHT31;54434;50.096;20.082;2023-08-06T15:12:58;17.35;83.56
67641;SHT31;54434;50.096;20.082;2023-08-06T15:15:35;17.43;83.26
67641;SHT31;54434;50.096;20.082;2023-08-06T15:18:14;17.49;83.05
67641;SHT31;54434;50.096;20.082;2023-08-06T15:20:51;17.49;82.83
67641;SHT31;54434;50.096;20.082;2023-08-06T15:23:29;17.43;82.64
67641;SHT31;54434;50.096;20.082;2023-08-06T15:26:05;17.34;82.43
67641;SHT31;54434;50.096;20.082;2023-08-06T15:28:42;17.23;82.34
67641;SHT31;54434;50.096;20.082;2023-08-06T15:31:20;17.14;82.44
67641;SHT31;54434;50.096;20.082;2023-08-06T15:33:57;17.09;82.68
67641;SHT31;54434;50.096;20.082;2023-08-06T15:36:36;17.06;82.78
67641;SHT31;54434;50.096;20.082;2023-08-06T15:39:13;17.08;82.97
67641;SHT31;54434;50.096;20.082;2023-08-06T15:41:49;17.10;82.69
67641;SHT31;54434;50.096;20.082;2023-08-06T15:44:25;17.12;82.76
67641;SHT31;54434;50.096;20.082;2023-08-06T15:47:03;17.14;82.79
67641;SHT31;54434;50.096;20.082;2023-08-06T15:49:40;17.13;82.82
67641;SHT31;54434;50.096;20.082;2023-08-06T15:52:17;17.13;82.88
67641;SHT31;54434;50.096;20.082;2023-08-06T15:54:53;17.14;83.07
67641;SHT31;54434;50.096;20.082;2023-08-06T15:57:35;17.08;83.24
67641;SHT31;54434;50.096;20.082;2023-08-06T16:00:13;16.98;83.28
67641;SHT31;54434;50.096;20.082;2023-08-06T16:02:49;16.96;83.43
67641;SHT31;54434;50.096;20.082;2023-08-06T16:05:26;17.00;83.58
67641;SHT31;54434;50.096;20.082;2023-08-06T16:08:04;17.05;83.58
67641;SHT31;54434;50.096;20.082;2023-08-06T16:10:41;17.10;83.48
67641;SHT31;54434;50.096;20.082;2023-08-06T16:13:18;17.15;83.47
67641;SHT31;54434;50.096;20.082;2023-08-06T16:15:54;17.17;83.49
67641;SHT31;54434;50.096;20.082;2023-08-06T16:18:32;17.16;83.22
67641;SHT31;54434;50.096;20.082;2023-08-06T16:21:08;17.13;83.05